createdAt,value
2022-08-23T00:01:21.230Z,101346.19
2022-08-23T00:03:47.892Z,101346.38
2022-08-23T00:06:12.870Z,101350.13
2022-08-23T00:08:36.905Z,101343.47
2022-08-23T00:11:00.843Z,101347.41
2022-08-23T00:13:24.723Z,101351.84
2022-08-23T00:16:09.879Z,101346.91
2022-08-23T00:18:33.492Z,101352.00
2022-08-23T00:20:57.201Z,101344.34
2022-08-23T00:23:21.209Z,101347.09
2022-08-23T00:25:45.428Z,101340.94
2022-08-23T00:28:11.442Z,101336.16
2022-08-23T00:30:39.098Z,101338.72
2022-08-23T00:33:04.159Z,101341.13
2022-08-23T00:35:28.653Z,101338.91
2022-08-23T00:38:32.322Z,101343.50
2022-08-23T00:40:36.045Z,101342.81
2022-08-23T00:43:26.112Z,101344.00
2022-08-23T00:46:16.547Z,101335.66
2022-08-23T00:48:42.355Z,101341.97
2022-08-23T00:51:12.892Z,101336.19
2022-08-23T00:53:42.172Z,101333.59
2022-08-23T00:56:12.214Z,101328.81
2022-08-23T00:58:37.543Z,101328.50
2022-08-23T01:01:04.472Z,101322.34
2022-08-23T01:03:38.821Z,101327.13
2022-08-23T01:06:13.068Z,101332.44
2022-08-23T01:08:38.387Z,101333.25
2022-08-23T01:11:09.643Z,101332.06
2022-08-23T01:13:41.047Z,101332.91
2022-08-23T01:16:11.553Z,101332.59
2022-08-23T01:18:35.714Z,101323.75
2022-08-23T01:21:10.767Z,101331.22
2022-08-23T01:23:43.239Z,101329.38
2022-08-23T01:26:09.079Z,101336.84
2022-08-23T01:28:35.092Z,101335.66
2022-08-23T01:30:58.873Z,101324.44
2022-08-23T01:33:22.879Z,101323.22
2022-08-23T01:35:53.527Z,101326.09
2022-08-23T01:38:18.163Z,101334.97
2022-08-23T01:40:44.927Z,101324.25
2022-08-23T01:43:10.111Z,101322.72
2022-08-23T01:45:35.127Z,101332.41
2022-08-23T01:47:59.257Z,101324.41
2022-08-23T01:50:23.704Z,101327.28
2022-08-23T01:52:47.594Z,101330.72
2022-08-23T01:55:13.858Z,101324.94
2022-08-23T01:57:39.079Z,101327.16
2022-08-23T02:00:07.875Z,101323.03
2022-08-23T02:02:37.432Z,101332.09
2022-08-23T02:05:01.319Z,101325.75
2022-08-23T02:07:28.905Z,101324.41
2022-08-23T02:09:53.265Z,101324.75
2022-08-23T02:12:17.583Z,101332.28
2022-08-23T02:14:43.723Z,101326.78
2022-08-23T02:17:16.171Z,101325.44
2022-08-23T02:19:41.216Z,101319.31
2022-08-23T02:22:07.471Z,101319.97
2022-08-23T02:24:32.235Z,101318.28
2022-08-23T02:26:59.506Z,101313.50
2022-08-23T02:29:29.726Z,101316.56
2022-08-23T02:31:55.683Z,101310.63
2022-08-23T02:34:20.694Z,101323.38
2022-08-23T02:36:46.096Z,101313.50
2022-08-23T02:39:10.931Z,101309.72
2022-08-23T02:41:36.178Z,101301.72
2022-08-23T02:44:00.468Z,101300.53
2022-08-23T02:46:24.920Z,101299.53
2022-08-23T02:48:51.047Z,101297.16
2022-08-23T02:51:14.745Z,101310.28
2022-08-23T02:53:39.303Z,101311.81
2022-08-23T02:56:12.951Z,101320.66
2022-08-23T02:58:46.586Z,101329.38
2022-08-23T03:01:19.270Z,101324.06
2022-08-23T03:03:43.507Z,101328.69
2022-08-23T03:06:25.487Z,101321.69
2022-08-23T03:08:49.916Z,101331.59
2022-08-23T03:11:15.684Z,101338.75
2022-08-23T03:13:41.637Z,101337.53
2022-08-23T03:16:06.125Z,101337.03
2022-08-23T03:18:30.030Z,101337.72
2022-08-23T03:20:56.623Z,101336.34
2022-08-23T03:23:21.930Z,101340.25
2022-08-23T03:25:45.975Z,101347.41
2022-08-23T03:28:21.483Z,101353.03
2022-08-23T03:30:45.634Z,101357.13
2022-08-23T03:33:10.314Z,101355.09
2022-08-23T03:35:34.309Z,101347.25
2022-08-23T03:38:00.695Z,101353.22
2022-08-23T03:40:26.671Z,101352.00
2022-08-23T03:42:50.691Z,101357.47
2022-08-23T03:45:16.598Z,101351.50
2022-08-23T03:47:41.024Z,101359.34
2022-08-23T03:50:05.689Z,101363.28
2022-08-23T03:52:30.527Z,101367.50
2022-08-23T03:54:55.124Z,101363.41
2022-08-23T03:57:20.327Z,101372.78
2022-08-23T03:59:44.159Z,101372.47
2022-08-23T04:02:09.115Z,101373.94
2022-08-23T04:04:33.511Z,101364.56
2022-08-23T04:07:20.795Z,101358.09
2022-08-23T04:09:50.913Z,101360.38
2022-08-23T04:12:20.450Z,101357.56
2022-08-23T04:14:45.578Z,101351.56
2022-08-23T04:17:10.473Z,101363.38
2022-08-23T04:19:34.380Z,101361.31
2022-08-23T04:22:00.976Z,101358.41
2022-08-23T04:24:31.747Z,101362.88
2022-08-23T04:26:55.576Z,101367.31
2022-08-23T04:29:31.446Z,101366.97
2022-08-23T04:31:58.255Z,101358.09
2022-08-23T04:34:22.060Z,101359.00
2022-08-23T04:36:55.218Z,101352.50
2022-08-23T04:39:19.476Z,101355.41
2022-08-23T04:42:01.276Z,101358.81
2022-08-23T04:44:26.543Z,101365.78
2022-08-23T04:46:51.008Z,101363.06
2022-08-23T04:49:14.788Z,101377.91
2022-08-23T04:51:38.627Z,101376.88
2022-08-23T04:54:03.158Z,101379.59
2022-08-23T04:56:45.592Z,101381.59
2022-08-23T04:59:16.791Z,101382.84
2022-08-23T05:01:44.243Z,101386.75
2022-08-23T05:04:10.775Z,101383.00
2022-08-23T05:06:36.391Z,101384.16
2022-08-23T05:09:02.312Z,101385.91
2022-08-23T05:11:28.111Z,101397.31
2022-08-23T05:13:52.186Z,101386.09
2022-08-23T05:16:17.883Z,101397.50
2022-08-23T05:18:54.313Z,101391.38
2022-08-23T05:21:20.251Z,101406.72
2022-08-23T05:23:44.557Z,101401.59
2022-08-23T05:26:17.272Z,101400.75
2022-08-23T05:28:44.580Z,101397.84
2022-08-23T05:31:13.069Z,101403.44
2022-08-23T05:33:42.841Z,101395.44
2022-08-23T05:36:10.419Z,101405.69
2022-08-23T05:38:35.104Z,101410.28
2022-08-23T05:41:02.136Z,101406.53
2022-08-23T05:43:30.706Z,101404.66
2022-08-23T05:46:03.729Z,101409.25
2022-08-23T05:48:30.293Z,101413.00
2022-08-23T05:50:57.675Z,101406.00
2022-08-23T05:53:22.800Z,101406.53
2022-08-23T05:55:46.882Z,101415.06
2022-08-23T05:58:15.230Z,101412.88
2022-08-23T06:00:40.722Z,101417.81
2022-08-23T06:03:06.083Z,101419.84
2022-08-23T06:05:30.785Z,101408.59
2022-08-23T06:07:56.255Z,101411.34
2022-08-23T06:10:22.946Z,101416.28
2022-08-23T06:12:55.547Z,101416.44
2022-08-23T06:15:19.543Z,101408.59
2022-08-23T06:17:43.295Z,101415.16
2022-08-23T06:20:08.739Z,101414.78
2022-08-23T06:22:53.386Z,101416.63
2022-08-23T06:25:17.247Z,101416.19
2022-08-23T06:27:50.315Z,101417.84
2022-08-23T06:30:15.141Z,101421.75
2022-08-23T06:32:38.819Z,101425.13
2022-08-23T06:35:41.651Z,101427.53
2022-08-23T06:38:15.099Z,101426.63
2022-08-23T06:41:02.790Z,101422.03
2022-08-23T06:43:39.252Z,101430.00
2022-08-23T06:46:20.077Z,101422.91
2022-08-23T06:48:48.699Z,101422.75
2022-08-23T06:51:15.207Z,101422.75
2022-08-23T06:53:55.029Z,101418.78
2022-08-23T06:56:40.007Z,101431.09
2022-08-23T06:59:12.256Z,101431.66
2022-08-23T07:01:57.753Z,101429.59
2022-08-23T07:04:30.183Z,101436.97
2022-08-23T07:07:10.749Z,101436.16
2022-08-23T07:09:35.485Z,101434.38
2022-08-23T07:12:00.788Z,101437.84
2022-08-23T07:14:26.914Z,101439.50
2022-08-23T07:16:56.185Z,101437.41
2022-08-23T07:19:22.839Z,101439.31
2022-08-23T07:21:53.164Z,101435.31
2022-08-23T07:24:18.722Z,101427.50
2022-08-23T07:26:44.527Z,101437.66
2022-08-23T07:29:11.467Z,101440.63
2022-08-23T07:31:43.979Z,101434.63
2022-08-23T07:34:10.385Z,101438.84
2022-08-23T07:36:37.684Z,101441.19
2022-08-23T07:39:02.137Z,101439.88
2022-08-23T07:41:32.909Z,101441.06
2022-08-23T07:43:58.233Z,101444.00
2022-08-23T07:46:22.014Z,101439.75
2022-08-23T07:48:54.213Z,101444.16
2022-08-23T07:51:26.757Z,101441.53
2022-08-23T07:53:50.521Z,101438.03
2022-08-23T07:56:18.687Z,101438.97
2022-08-23T07:59:01.486Z,101432.94
2022-08-23T08:01:35.304Z,101437.22
2022-08-23T08:04:03.627Z,101448.53
2022-08-23T08:06:33.988Z,101441.78
2022-08-23T08:08:58.738Z,101448.50
2022-08-23T08:11:29.705Z,101442.56
2022-08-23T08:13:59.052Z,101450.97
2022-08-23T08:16:27.969Z,101454.59
2022-08-23T08:18:53.248Z,101453.06
2022-08-23T08:21:51.357Z,101457.19
2022-08-23T08:24:41.416Z,101454.75
2022-08-23T08:27:09.397Z,101457.25
2022-08-23T08:29:33.520Z,101471.94
2022-08-23T08:31:57.573Z,101453.94
2022-08-23T08:34:21.451Z,101452.69
2022-08-23T08:36:50.217Z,101460.91
2022-08-23T08:39:19.864Z,101453.38
2022-08-23T08:42:04.619Z,101456.56
2022-08-23T08:44:40.087Z,101457.19
2022-08-23T08:47:11.923Z,101456.78
2022-08-23T08:49:43.436Z,101455.72
2022-08-23T08:52:18.670Z,101452.59
2022-08-23T08:54:48.037Z,101454.47
2022-08-23T08:57:15.718Z,101447.88
2022-08-23T08:59:52.251Z,101448.53
2022-08-23T09:02:31.883Z,101448.72
2022-08-23T09:05:02.646Z,101446.78
2022-08-23T09:07:50.968Z,101452.91
2022-08-23T09:10:33.683Z,101440.41
2022-08-23T09:13:37.244Z,101442.22
2022-08-23T09:16:13.354Z,101451.72
2022-08-23T09:18:38.468Z,101448.00
2022-08-23T09:21:02.993Z,101443.44
2022-08-23T09:23:38.325Z,101453.16
2022-08-23T09:26:19.370Z,101450.09
2022-08-23T09:28:43.539Z,101443.16
2022-08-23T09:31:08.462Z,101441.22
2022-08-23T09:33:42.032Z,101445.03
2022-08-23T09:36:23.939Z,101445.41
2022-08-23T09:38:56.607Z,101440.41
2022-08-23T09:41:27.760Z,101443.47
2022-08-23T09:43:55.729Z,101444.34
2022-08-23T09:46:28.271Z,101449.09
2022-08-23T09:48:55.229Z,101449.22
2022-08-23T09:51:30.328Z,101441.03
2022-08-23T09:54:09.447Z,101436.25
2022-08-23T09:56:38.809Z,101442.22
2022-08-23T09:59:04.388Z,101433.94
2022-08-23T10:01:40.142Z,101440.81
2022-08-23T10:04:14.810Z,101441.22
2022-08-23T10:06:41.039Z,101432.09
2022-08-23T10:09:10.130Z,101431.66
2022-08-23T10:11:42.673Z,101439.50
2022-08-23T10:14:08.440Z,101432.50
2022-08-23T10:16:43.768Z,101435.28
2022-08-23T10:19:21.205Z,101423.47
2022-08-23T10:21:57.440Z,101429.59
2022-08-23T10:24:34.614Z,101440.75
2022-08-23T10:27:40.051Z,101432.19
2022-08-23T10:30:10.310Z,101435.94
2022-08-23T10:32:53.630Z,101440.97
2022-08-23T10:35:37.091Z,101439.72
2022-08-23T10:38:42.145Z,101440.34
2022-08-23T10:41:40.056Z,101441.44
2022-08-23T10:44:24.835Z,101440.38
2022-08-23T10:47:08.867Z,101427.00
2022-08-23T10:49:37.819Z,101438.00
2022-08-23T10:52:05.238Z,101430.78
2022-08-23T10:54:46.043Z,101429.63
2022-08-23T10:57:20.755Z,101428.94
2022-08-23T10:59:47.021Z,101436.66
2022-08-23T11:02:23.949Z,101442.41
2022-08-23T11:05:06.994Z,101432.69
2022-08-23T11:07:35.338Z,101432.03
2022-08-23T11:10:17.423Z,101430.59
2022-08-23T11:12:58.996Z,101435.09
2022-08-23T11:15:34.262Z,101431.34
2022-08-23T11:18:04.196Z,101433.41
2022-08-23T11:21:34.148Z,101428.06
2022-08-23T11:24:39.025Z,101433.66
2022-08-23T11:27:07.692Z,101437.09
2022-08-23T11:29:43.416Z,101435.34
2022-08-23T11:32:40.243Z,101432.19
2022-08-23T11:35:32.966Z,101425.75
2022-08-23T11:38:04.317Z,101422.94
2022-08-23T11:41:22.747Z,101423.28
2022-08-23T11:43:49.666Z,101433.03
2022-08-23T11:46:36.089Z,101428.72
2022-08-23T11:49:55.682Z,101426.94
2022-08-23T11:52:51.183Z,101431.41
2022-08-23T11:55:52.802Z,101434.00
2022-08-23T11:58:25.063Z,101427.78
2022-08-23T12:01:07.642Z,101435.56
2022-08-23T12:03:37.126Z,101434.09
2022-08-23T12:06:16.740Z,101435.56
2022-08-23T12:08:53.804Z,101434.41
2022-08-23T12:11:20.215Z,101429.19
2022-08-23T12:13:55.549Z,101421.16
2022-08-23T12:16:44.322Z,101434.38
2022-08-23T12:19:30.509Z,101424.69
2022-08-23T12:21:57.905Z,101424.16
2022-08-23T12:24:27.805Z,101435.94
2022-08-23T12:27:04.781Z,101432.53
2022-08-23T12:30:00.008Z,101427.19
2022-08-23T12:32:36.559Z,101436.31
2022-08-23T12:35:20.086Z,101442.72
2022-08-23T12:37:52.232Z,101431.09
2022-08-23T12:40:23.996Z,101428.50
2022-08-23T12:42:48.120Z,101419.19
2022-08-23T12:45:19.446Z,101409.81
2022-08-23T12:47:45.444Z,101418.44
2022-08-23T12:50:32.953Z,101424.94
2022-08-23T12:53:01.271Z,101424.78
2022-08-23T12:55:25.221Z,101421.47
2022-08-23T12:57:56.531Z,101413.91
2022-08-23T13:00:25.491Z,101407.88
2022-08-23T13:02:56.893Z,101403.91
2022-08-23T13:05:33.943Z,101401.47
2022-08-23T13:07:59.540Z,101396.91
2022-08-23T13:10:23.644Z,101400.25
2022-08-23T13:12:47.523Z,101402.84
2022-08-23T13:15:14.215Z,101403.50
2022-08-23T13:17:41.071Z,101397.28
2022-08-23T13:20:24.422Z,101386.75
2022-08-23T13:23:04.110Z,101398.66
2022-08-23T13:25:32.705Z,101404.44
2022-08-23T13:27:59.606Z,101409.81
2022-08-23T13:30:26.667Z,101400.44
2022-08-23T13:32:52.151Z,101412.00
2022-08-23T13:35:36.629Z,101410.72
2022-08-23T13:38:10.834Z,101400.53
2022-08-23T13:40:43.778Z,101400.63
2022-08-23T13:43:11.867Z,101406.00
2022-08-23T13:45:38.084Z,101406.28
2022-08-23T13:48:08.883Z,101399.06
2022-08-23T13:50:36.783Z,101402.88
2022-08-23T13:53:14.386Z,101402.63
2022-08-23T13:55:46.219Z,101404.88
2022-08-23T13:58:13.397Z,101397.69
2022-08-23T14:00:37.876Z,101402.88
2022-08-23T14:03:01.700Z,101411.72
2022-08-23T14:05:25.546Z,101404.66
2022-08-23T14:07:53.004Z,101395.88
2022-08-23T14:10:18.313Z,101393.41
2022-08-23T14:12:44.958Z,101398.16
2022-08-23T14:15:10.110Z,101392.47
2022-08-23T14:17:41.709Z,101393.41
2022-08-23T14:22:52.960Z,101395.84
2022-08-23T14:25:16.896Z,101392.38
2022-08-23T14:27:42.567Z,101387.53
2022-08-23T14:30:08.495Z,101383.59
2022-08-23T14:32:32.398Z,101383.84
2022-08-23T14:34:56.075Z,101388.41
2022-08-23T14:38:00.439Z,101389.31
2022-08-23T14:40:06.898Z,101386.13
2022-08-23T14:42:31.830Z,101392.09
2022-08-23T14:44:55.531Z,101386.47
2022-08-23T14:47:19.515Z,101384.28
2022-08-23T14:49:43.323Z,101379.25
2022-08-23T14:52:07.323Z,101377.34
2022-08-23T14:54:31.928Z,101374.72
2022-08-23T14:56:57.080Z,101379.19
2022-08-23T14:59:20.880Z,101378.66
2022-08-23T15:01:45.148Z,101392.97
2022-08-23T15:04:10.043Z,101377.75
2022-08-23T15:06:33.792Z,101377.44
2022-08-23T15:08:57.567Z,101383.28
2022-08-23T15:14:06.903Z,101382.09
2022-08-23T15:16:30.955Z,101383.22
2022-08-23T15:18:55.015Z,101377.81
2022-08-23T15:21:19.511Z,101370.66
2022-08-23T15:23:43.400Z,101373.53
2022-08-23T15:26:08.199Z,101370.13
2022-08-23T15:28:32.209Z,101367.00
2022-08-23T15:30:58.059Z,101359.72
2022-08-23T15:33:27.164Z,101371.88
2022-08-23T15:35:55.548Z,101369.13
2022-08-23T15:38:20.598Z,101369.75
2022-08-23T15:40:45.215Z,101365.94
2022-08-23T15:43:08.924Z,101375.94
2022-08-23T15:45:33.859Z,101369.28
2022-08-23T15:48:01.243Z,101368.50
2022-08-23T15:50:31.061Z,101370.81
2022-08-23T15:52:55.244Z,101365.53
2022-08-23T15:55:19.756Z,101365.50
2022-08-23T15:57:46.839Z,101366.81
2022-08-23T16:00:13.005Z,101366.78
2022-08-23T16:02:57.347Z,101374.56
2022-08-23T16:05:22.243Z,101369.16
2022-08-23T16:07:46.423Z,101364.75
2022-08-23T16:10:13.003Z,101367.09
2022-08-23T16:12:36.723Z,101370.97
2022-08-23T16:15:00.443Z,101362.38
2022-08-23T16:17:24.275Z,101372.53
2022-08-23T16:19:48.964Z,101367.16
2022-08-23T16:22:14.790Z,101361.72
2022-08-23T16:24:38.531Z,101367.97
2022-08-23T16:27:02.183Z,101364.75
2022-08-23T16:29:27.346Z,101359.59
2022-08-23T16:31:51.915Z,101357.25
2022-08-23T16:34:18.415Z,101355.72
2022-08-23T16:36:45.562Z,101355.50
2022-08-23T16:39:12.831Z,101364.81
2022-08-23T16:41:36.776Z,101352.16
2022-08-23T16:44:00.727Z,101351.72
2022-08-23T16:46:25.845Z,101358.94
2022-08-23T16:48:49.940Z,101357.91
2022-08-23T16:51:14.138Z,101368.97
2022-08-23T16:53:38.508Z,101366.56
2022-08-23T16:56:03.699Z,101363.66
2022-08-23T16:58:27.512Z,101364.69
2022-08-23T17:00:51.553Z,101374.91
2022-08-23T17:03:15.610Z,101379.13
2022-08-23T17:05:39.350Z,101381.22
2022-08-23T17:08:03.472Z,101385.47
2022-08-23T17:10:27.524Z,101386.75
2022-08-23T17:12:55.584Z,101385.94
2022-08-23T17:15:25.075Z,101390.81
2022-08-23T17:17:49.104Z,101395.66
2022-08-23T17:20:14.638Z,101395.69
2022-08-23T17:22:38.640Z,101389.72
2022-08-23T17:25:02.276Z,101398.59
2022-08-23T17:27:26.231Z,101399.44
2022-08-23T17:29:51.667Z,101402.22
2022-08-23T17:32:18.451Z,101404.50
2022-08-23T17:34:42.082Z,101402.41
2022-08-23T17:37:06.431Z,101409.59
2022-08-23T17:39:32.273Z,101411.09
2022-08-23T17:41:59.638Z,101421.84
2022-08-23T17:44:23.697Z,101421.78
2022-08-23T17:46:49.243Z,101424.75
2022-08-23T17:49:14.246Z,101428.72
2022-08-23T17:51:41.051Z,101431.47
2022-08-23T17:54:05.023Z,101437.56
2022-08-23T17:56:29.079Z,101438.88
2022-08-23T17:58:53.010Z,101442.84
2022-08-23T18:01:16.826Z,101441.63
2022-08-23T18:03:42.501Z,101450.13
2022-08-23T18:06:16.835Z,101456.28
2022-08-23T18:08:41.139Z,101459.47
2022-08-23T18:11:05.023Z,101466.03
2022-08-23T18:13:28.762Z,101465.13
2022-08-23T18:15:52.664Z,101469.31
2022-08-23T18:18:16.472Z,101475.13
2022-08-23T18:20:41.544Z,101483.97
2022-08-23T18:23:06.011Z,101477.19
2022-08-23T18:25:30.111Z,101480.53
2022-08-23T18:28:08.537Z,101478.34
2022-08-23T18:30:32.442Z,101476.00
2022-08-23T18:32:56.396Z,101490.41
2022-08-23T18:35:20.239Z,101487.81
2022-08-23T18:37:46.108Z,101493.88
2022-08-23T18:40:11.896Z,101500.75
2022-08-23T18:42:36.038Z,101501.09
2022-08-23T18:44:59.747Z,101502.31
2022-08-23T18:47:23.356Z,101496.91
2022-08-23T18:49:47.014Z,101502.09
2022-08-23T18:52:10.782Z,101496.09
2022-08-23T18:54:36.546Z,101503.00
2022-08-23T18:57:00.655Z,101508.09
2022-08-23T18:59:24.520Z,101510.16
2022-08-23T19:01:48.532Z,101515.94
2022-08-23T19:04:14.416Z,101508.28
2022-08-23T19:06:38.833Z,101512.94
2022-08-23T19:09:02.564Z,101524.28
2022-08-23T19:11:28.234Z,101520.81
2022-08-23T19:13:52.217Z,101525.78
2022-08-23T19:16:17.125Z,101525.31
2022-08-23T19:18:41.211Z,101522.28
2022-08-23T19:21:06.475Z,101525.59
2022-08-23T19:23:30.211Z,101522.50
2022-08-23T19:25:53.907Z,101532.13
2022-08-23T19:28:19.991Z,101532.22
2022-08-23T19:30:44.267Z,101533.16
2022-08-23T19:33:08.131Z,101534.19
2022-08-23T19:35:32.108Z,101536.03
2022-08-23T19:37:55.855Z,101540.94
2022-08-23T19:40:20.373Z,101549.97
2022-08-23T19:42:44.160Z,101547.97
2022-08-23T19:45:10.981Z,101547.38
2022-08-23T19:47:35.035Z,101548.94
2022-08-23T19:49:59.912Z,101549.38
2022-08-23T19:52:23.627Z,101557.63
2022-08-23T19:54:47.667Z,101556.47
2022-08-23T19:57:11.379Z,101557.88
2022-08-23T19:59:40.278Z,101557.03
2022-08-23T20:02:05.795Z,101562.84
2022-08-23T20:04:32.261Z,101560.13
2022-08-23T20:06:57.631Z,101561.53
2022-08-23T20:09:23.416Z,101566.66
2022-08-23T20:11:47.409Z,101567.03
2022-08-23T20:14:11.688Z,101568.09
2022-08-23T20:16:36.652Z,101571.84
2022-08-23T20:19:04.039Z,101572.22
2022-08-23T20:21:28.586Z,101579.22
2022-08-23T20:24:04.173Z,101579.09
2022-08-23T20:26:29.099Z,101573.97
2022-08-23T20:28:59.670Z,101577.56
2022-08-23T20:31:28.201Z,101578.06
2022-08-23T20:33:53.137Z,101580.13
2022-08-23T20:36:20.356Z,101580.50
2022-08-23T20:38:44.114Z,101584.56
2022-08-23T20:41:08.504Z,101583.75
2022-08-23T20:43:32.811Z,101585.25
2022-08-23T20:45:57.451Z,101588.34
2022-08-23T20:48:21.414Z,101587.13
2022-08-23T20:50:45.155Z,101586.44
2022-08-23T20:53:12.819Z,101589.34
2022-08-23T20:55:36.544Z,101589.19
2022-08-23T20:58:00.841Z,101587.66
2022-08-23T21:00:24.683Z,101581.69
2022-08-23T21:02:48.529Z,101587.31
2022-08-23T21:05:12.398Z,101585.78
2022-08-23T21:07:36.837Z,101591.94
2022-08-23T21:10:02.188Z,101592.06
2022-08-23T21:12:26.001Z,101594.28
2022-08-23T21:14:50.595Z,101582.84
2022-08-23T21:17:14.412Z,101582.84
2022-08-23T21:19:38.257Z,101587.78
2022-08-23T21:22:02.019Z,101585.56
2022-08-23T21:24:26.307Z,101585.91
2022-08-23T21:26:52.032Z,101587.94
2022-08-23T21:29:15.958Z,101582.28
2022-08-23T21:31:40.614Z,101585.81
2022-08-23T21:34:04.570Z,101590.56
2022-08-23T21:36:29.146Z,101587.84
2022-08-23T21:38:52.870Z,101583.75
2022-08-23T21:41:34.980Z,101588.00
2022-08-23T21:44:00.131Z,101584.06
2022-08-23T21:46:24.517Z,101590.56
2022-08-23T21:48:48.259Z,101582.88
2022-08-23T21:51:11.862Z,101582.66
2022-08-23T21:53:35.559Z,101585.38
2022-08-23T21:55:59.126Z,101583.31
2022-08-23T21:58:22.919Z,101585.50
2022-08-23T22:00:47.978Z,101575.94
2022-08-23T22:03:12.034Z,101582.56
2022-08-23T22:05:40.875Z,101582.22
2022-08-23T22:08:05.103Z,101571.00
2022-08-23T22:10:28.791Z,101575.53
2022-08-23T22:12:52.827Z,101574.72
2022-08-23T22:15:17.556Z,101570.59
2022-08-23T22:17:42.644Z,101569.91
2022-08-23T22:20:08.699Z,101569.91
2022-08-23T22:22:33.282Z,101573.97
2022-08-23T22:24:57.740Z,101573.59
2022-08-23T22:27:22.339Z,101569.66
2022-08-23T22:29:46.780Z,101575.41
2022-08-23T22:32:10.529Z,101572.31
2022-08-23T22:34:35.783Z,101583.03
2022-08-23T22:36:59.691Z,101585.53
2022-08-23T22:39:25.282Z,101581.09
2022-08-23T22:41:48.986Z,101581.94
2022-08-23T22:44:12.644Z,101580.44
2022-08-23T22:46:37.044Z,101576.25
2022-08-23T22:49:01.165Z,101570.63
2022-08-23T22:51:28.851Z,101569.38
2022-08-23T22:53:56.028Z,101573.50
2022-08-23T22:56:22.933Z,101567.16
2022-08-23T22:58:47.774Z,101580.53
2022-08-23T23:01:20.931Z,101572.53
2022-08-23T23:03:44.906Z,101567.66
2022-08-23T23:06:08.655Z,101562.78
2022-08-23T23:08:33.703Z,101574.78
2022-08-23T23:11:00.171Z,101572.78
2022-08-23T23:13:25.455Z,101578.56
2022-08-23T23:15:50.184Z,101576.84
2022-08-23T23:18:13.948Z,101573.41
2022-08-23T23:20:40.281Z,101578.47
2022-08-23T23:23:03.979Z,101569.31
2022-08-23T23:25:29.063Z,101587.25
2022-08-23T23:27:55.409Z,101580.13
2022-08-23T23:30:22.872Z,101574.69
2022-08-23T23:32:46.619Z,101574.97
2022-08-23T23:35:11.453Z,101571.78
2022-08-23T23:37:35.219Z,101570.06
2022-08-23T23:39:59.230Z,101568.69
2022-08-23T23:42:24.299Z,101571.25
2022-08-23T23:44:48.047Z,101566.97
2022-08-23T23:47:11.815Z,101557.56
2022-08-23T23:49:35.551Z,101569.16
2022-08-23T23:51:59.138Z,101565.03
2022-08-23T23:54:22.899Z,101557.25
2022-08-23T23:56:48.224Z,101559.50
2022-08-23T23:59:13.414Z,101571.97
